createdAt,value
2022-07-25T00:03:47.483Z,99.90
2022-07-25T00:13:50.441Z,99.90
2022-07-25T00:23:52.521Z,99.90
2022-07-25T00:33:54.440Z,99.90
2022-07-25T00:43:56.525Z,99.90
2022-07-25T00:53:58.469Z,99.90
2022-07-25T01:04:00.459Z,99.90
2022-07-25T01:14:02.635Z,99.90
2022-07-25T01:24:05.474Z,99.90
2022-07-25T01:34:07.929Z,99.90
2022-07-25T01:44:10.347Z,99.90
2022-07-25T01:54:12.515Z,99.90
2022-07-25T02:04:14.459Z,99.90
2022-07-25T02:14:16.529Z,99.90
2022-07-25T02:24:18.481Z,99.90
2022-07-25T02:34:20.438Z,99.90
2022-07-25T02:44:22.389Z,99.90
2022-07-25T02:54:24.998Z,99.90
2022-07-25T03:04:27.039Z,99.90
2022-07-25T03:14:29.387Z,99.90
2022-07-25T03:24:31.306Z,99.90
2022-07-25T03:34:33.266Z,99.90
2022-07-25T03:44:35.177Z,99.90
2022-07-25T03:54:37.088Z,99.90
2022-07-25T04:04:38.969Z,99.90
2022-07-25T04:14:41.195Z,99.90
2022-07-25T04:24:43.058Z,99.90
2022-07-25T04:34:45.139Z,99.90
2022-07-25T04:44:47.102Z,97.50
2022-07-25T04:54:49.098Z,92.60
2022-07-25T05:04:52.174Z,87.40
2022-07-25T05:14:54.240Z,82.90
2022-07-25T05:24:56.158Z,77.50
2022-07-25T05:34:58.275Z,73.00
2022-07-25T05:45:00.720Z,68.30
2022-07-25T05:55:02.667Z,66.00
2022-07-25T06:05:04.728Z,65.70
2022-07-25T06:15:07.091Z,58.50
2022-07-25T06:25:14.688Z,58.20
2022-07-25T06:35:18.140Z,59.60
2022-07-25T06:45:20.041Z,57.00
2022-07-25T06:55:22.057Z,56.70
2022-07-25T07:05:25.648Z,56.00
2022-07-25T07:15:27.720Z,54.30
2022-07-25T07:25:29.642Z,54.00
2022-07-25T07:35:35.969Z,54.30
2022-07-25T07:45:38.035Z,52.40
2022-07-25T07:55:40.051Z,53.60
2022-07-25T08:05:44.453Z,51.70
2022-07-25T08:15:49.524Z,50.60
2022-07-25T08:25:51.863Z,48.90
2022-07-25T08:35:55.293Z,48.90
2022-07-25T08:45:59.657Z,48.70
2022-07-25T08:56:20.467Z,48.50
2022-07-25T09:06:23.233Z,48.50
2022-07-25T09:16:40.460Z,46.90
2022-07-25T09:26:54.754Z,47.10
2022-07-25T09:36:56.813Z,45.80
2022-07-25T09:46:59.482Z,46.60
2022-07-25T09:57:01.723Z,46.30
2022-07-25T10:07:11.361Z,46.20
2022-07-25T10:17:21.291Z,43.80
2022-07-25T10:27:25.182Z,45.40
2022-07-25T10:37:28.541Z,43.50
2022-07-25T10:47:34.496Z,43.90
2022-07-25T10:57:45.178Z,45.60
2022-07-25T11:08:20.604Z,44.90
2022-07-25T11:18:18.853Z,44.90
2022-07-25T11:28:20.752Z,43.50
2022-07-25T11:38:22.690Z,44.40
2022-07-25T11:48:44.053Z,44.30
2022-07-25T11:59:00.095Z,43.60
2022-07-25T12:09:18.314Z,45.00
2022-07-25T12:19:22.058Z,44.30
2022-07-25T12:29:23.936Z,43.80
2022-07-25T12:39:25.982Z,43.30
2022-07-25T12:49:29.836Z,44.10
2022-07-25T12:59:31.934Z,43.60
2022-07-25T13:09:33.859Z,44.70
2022-07-25T13:19:35.856Z,44.50
2022-07-25T13:29:37.870Z,44.10
2022-07-25T13:39:39.940Z,43.90
2022-07-25T13:49:43.342Z,44.70
2022-07-25T13:59:45.387Z,44.80
2022-07-25T14:09:47.275Z,44.60
2022-07-25T14:19:49.101Z,44.30
2022-07-25T14:29:51.128Z,45.30
2022-07-25T14:39:53.120Z,45.20
2022-07-25T14:49:55.031Z,45.00
2022-07-25T14:59:56.888Z,44.90
2022-07-25T15:09:58.787Z,45.00
2022-07-25T15:20:00.741Z,45.60
2022-07-25T15:30:02.765Z,45.90
2022-07-25T15:40:05.175Z,46.20
2022-07-25T15:50:07.282Z,46.20
2022-07-25T16:00:09.691Z,46.10
2022-07-25T16:10:13.005Z,46.80
2022-07-25T16:20:14.941Z,46.50
2022-07-25T16:30:17.185Z,47.00
2022-07-25T16:40:19.216Z,47.00
2022-07-25T16:50:23.061Z,47.20
2022-07-25T17:00:24.956Z,47.80
2022-07-25T17:10:28.068Z,48.20
2022-07-25T17:20:30.003Z,48.10
2022-07-25T17:30:32.004Z,48.60
2022-07-25T17:40:34.107Z,49.30
2022-07-25T17:50:36.173Z,50.10
2022-07-25T18:00:38.196Z,50.70
2022-07-25T18:10:40.344Z,51.50
2022-07-25T18:20:42.378Z,52.10
2022-07-25T18:30:44.417Z,52.90
2022-07-25T18:40:46.384Z,53.50
2022-07-25T18:50:48.263Z,54.30
2022-07-25T19:00:50.251Z,54.80
2022-07-25T19:10:52.594Z,55.30
2022-07-25T19:20:54.519Z,55.70
2022-07-25T19:30:57.889Z,55.90
2022-07-25T19:41:00.097Z,56.20
2022-07-25T19:51:02.228Z,56.60
2022-07-25T20:01:04.268Z,57.20
2022-07-25T20:11:07.555Z,57.60
2022-07-25T20:21:11.760Z,58.10
2022-07-25T20:31:13.748Z,58.30
2022-07-25T20:41:15.803Z,59.00
2022-07-25T20:51:17.730Z,58.90
2022-07-25T21:01:19.675Z,59.40
2022-07-25T21:11:22.371Z,60.20
2022-07-25T21:21:25.763Z,60.20
2022-07-25T21:31:27.799Z,60.60
2022-07-25T21:41:30.648Z,61.10
2022-07-25T21:51:40.579Z,61.80
2022-07-25T22:12:04.253Z,63.30
2022-07-25T22:22:07.225Z,64.10
2022-07-25T22:32:09.573Z,65.20
2022-07-25T22:42:11.677Z,66.20
2022-07-25T22:52:18.501Z,67.40
2022-07-25T23:02:20.698Z,68.80
2022-07-25T23:12:22.829Z,70.10
2022-07-25T23:22:26.476Z,71.20
2022-07-25T23:32:28.973Z,72.60
2022-07-25T23:42:31.020Z,74.70
2022-07-25T23:52:33.947Z,77.80
